sensor_id;sensor_type;location;lat;lon;timestamp;P1;durP1;ratioP1;P2;durP2;ratioP2
11642;SDS011;5877;50.930;6.918;2024-01-27T00:05:12;10.93;;;3.03;;
11642;SDS011;5877;50.930;6.918;2024-01-27T00:14:55;8.17;;;2.90;;
11642;SDS011;5877;50.930;6.918;2024-01-27T00:24:37;13.53;;;3.33;;
11642;SDS011;5877;50.930;6.918;2024-01-27T00:34:19;10.77;;;3.50;;
11642;SDS011;5877;50.930;6.918;2024-01-27T00:44:03;9.00;;;3.00;;
11642;SDS011;5877;50.930;6.918;2024-01-27T08:30:18;9.40;;;3.30;;
11642;SDS011;5877;50.930;6.918;2024-01-27T08:40:00;7.90;;;3.00;;
11642;SDS011;5877;50.930;6.918;2024-01-27T08:49:44;8.93;;;2.83;;
11642;SDS011;5877;50.930;6.918;2024-01-27T08:59:26;10.30;;;3.40;;
11642;SDS011;5877;50.930;6.918;2024-01-27T09:09:08;10.03;;;3.53;;
11642;SDS011;5877;50.930;6.918;2024-01-27T09:18:50;8.43;;;3.47;;
11642;SDS011;5877;50.930;6.918;2024-01-27T09:28:36;9.40;;;3.77;;
11642;SDS011;5877;50.930;6.918;2024-01-27T09:38:21;10.10;;;3.73;;
11642;SDS011;5877;50.930;6.918;2024-01-27T09:48:03;9.93;;;3.77;;
11642;SDS011;5877;50.930;6.918;2024-01-27T09:57:51;9.13;;;3.53;;
11642;SDS011;5877;50.930;6.918;2024-01-27T10:07:34;12.53;;;3.03;;
11642;SDS011;5877;50.930;6.918;2024-01-27T10:18:30;7.87;;;3.17;;
11642;SDS011;5877;50.930;6.918;2024-01-27T10:29:26;11.83;;;3.17;;
11642;SDS011;5877;50.930;6.918;2024-01-27T19:06:54;12.73;;;5.63;;
11642;SDS011;5877;50.930;6.918;2024-01-27T19:16:38;11.07;;;5.23;;
11642;SDS011;5877;50.930;6.918;2024-01-27T19:26:21;9.23;;;4.70;;
11642;SDS011;5877;50.930;6.918;2024-01-27T19:36:04;11.33;;;4.30;;
11642;SDS011;5877;50.930;6.918;2024-01-27T19:45:47;12.60;;;4.50;;
11642;SDS011;5877;50.930;6.918;2024-01-27T19:55:30;12.83;;;4.97;;
11642;SDS011;5877;50.930;6.918;2024-01-27T20:05:13;9.60;;;4.93;;
11642;SDS011;5877;50.930;6.918;2024-01-27T20:14:55;12.30;;;5.90;;
11642;SDS011;5877;50.930;6.918;2024-01-27T20:24:38;11.20;;;5.27;;
11642;SDS011;5877;50.930;6.918;2024-01-27T20:34:20;8.93;;;5.07;;
11642;SDS011;5877;50.930;6.918;2024-01-27T20:44:03;12.03;;;5.10;;
11642;SDS011;5877;50.930;6.918;2024-01-27T20:53:45;10.20;;;4.93;;
11642;SDS011;5877;50.930;6.918;2024-01-27T21:03:28;11.17;;;4.60;;
11642;SDS011;5877;50.930;6.918;2024-01-27T21:13:10;11.27;;;5.80;;
11642;SDS011;5877;50.930;6.918;2024-01-27T21:22:53;15.90;;;5.27;;
11642;SDS011;5877;50.930;6.918;2024-01-27T21:32:38;8.57;;;4.70;;
11642;SDS011;5877;50.930;6.918;2024-01-27T21:42:21;13.27;;;5.13;;
11642;SDS011;5877;50.930;6.918;2024-01-27T21:52:06;10.23;;;5.50;;
11642;SDS011;5877;50.930;6.918;2024-01-27T22:01:49;16.40;;;6.03;;
11642;SDS011;5877;50.930;6.918;2024-01-27T22:11:32;11.17;;;4.90;;
11642;SDS011;5877;50.930;6.918;2024-01-27T22:21:14;11.80;;;5.53;;
11642;SDS011;5877;50.930;6.918;2024-01-27T22:31:03;9.20;;;4.37;;
11642;SDS011;5877;50.930;6.918;2024-01-27T22:40:47;13.33;;;5.10;;
11642;SDS011;5877;50.930;6.918;2024-01-27T22:50:29;9.27;;;5.50;;
11642;SDS011;5877;50.930;6.918;2024-01-27T23:00:14;10.93;;;5.53;;
11642;SDS011;5877;50.930;6.918;2024-01-27T23:10:09;12.47;;;6.17;;
11642;SDS011;5877;50.930;6.918;2024-01-27T23:19:52;8.50;;;5.40;;
11642;SDS011;5877;50.930;6.918;2024-01-27T23:29:34;14.43;;;6.83;;
11642;SDS011;5877;50.930;6.918;2024-01-27T23:39:19;9.67;;;4.43;;
11642;SDS011;5877;50.930;6.918;2024-01-27T23:49:01;11.40;;;5.10;;
11642;SDS011;5877;50.930;6.918;2024-01-27T23:58:43;9.03;;;4.30;;
